sensor_id;sensor_type;location;lat;lon;timestamp;temperature;humidity
19206;DHT22;59358;52.134;5.596;2024-03-22T00:02:06;11.30;99.90
19206;DHT22;59358;52.134;5.596;2024-03-22T00:04:32;11.30;99.90
19206;DHT22;59358;52.134;5.596;2024-03-22T00:06:59;11.30;99.90
19206;DHT22;59358;52.134;5.596;2024-03-22T00:09:25;11.40;99.90
19206;DHT22;59358;52.134;5.596;2024-03-22T00:11:51;11.40;99.90
19206;DHT22;59358;52.134;5.596;2024-03-22T00:14:19;11.40;99.90
19206;DHT22;59358;52.134;5.596;2024-03-22T00:16:45;11.40;99.90
19206;DHT22;59358;52.134;5.596;2024-03-22T00:19:11;11.40;99.90
19206;DHT22;59358;52.134;5.596;2024-03-22T00:21:38;11.50;99.90
19206;DHT22;59358;52.134;5.596;2024-03-22T00:24:04;11.50;99.90
19206;DHT22;59358;52.134;5.596;2024-03-22T00:26:31;11.50;99.90
19206;DHT22;59358;52.134;5.596;2024-03-22T00:28:57;11.40;99.90
19206;DHT22;59358;52.134;5.596;2024-03-22T00:31:25;11.40;99.90
19206;DHT22;59358;52.134;5.596;2024-03-22T00:33:51;11.50;99.90
19206;DHT22;59358;52.134;5.596;2024-03-22T00:36:18;11.40;99.90
19206;DHT22;59358;52.134;5.596;2024-03-22T00:38:44;11.40;99.90
19206;DHT22;59358;52.134;5.596;2024-03-22T00:41:10;11.40;99.90
19206;DHT22;59358;52.134;5.596;2024-03-22T00:43:36;11.40;99.90
19206;DHT22;59358;52.134;5.596;2024-03-22T00:46:03;11.40;99.90
19206;DHT22;59358;52.134;5.596;2024-03-22T00:48:30;11.40;99.90
19206;DHT22;59358;52.134;5.596;2024-03-22T00:50:57;11.40;99.90
19206;DHT22;59358;52.134;5.596;2024-03-22T00:53:23;11.40;99.90
19206;DHT22;59358;52.134;5.596;2024-03-22T00:55:50;11.30;99.90
19206;DHT22;59358;52.134;5.596;2024-03-22T00:58:17;11.30;99.90
19206;DHT22;59358;52.134;5.596;2024-03-22T01:00:44;11.30;99.90
19206;DHT22;59358;52.134;5.596;2024-03-22T01:03:10;11.30;99.90
19206;DHT22;59358;52.134;5.596;2024-03-22T01:05:39;11.40;99.90
19206;DHT22;59358;52.134;5.596;2024-03-22T01:08:06;11.40;99.90
19206;DHT22;59358;52.134;5.596;2024-03-22T01:10:33;11.40;99.90
19206;DHT22;59358;52.134;5.596;2024-03-22T01:12:59;11.40;99.90
19206;DHT22;59358;52.134;5.596;2024-03-22T01:15:26;11.50;99.90
19206;DHT22;59358;52.134;5.596;2024-03-22T01:17:52;11.40;99.90
19206;DHT22;59358;52.134;5.596;2024-03-22T01:20:19;11.40;99.90
19206;DHT22;59358;52.134;5.596;2024-03-22T01:22:46;11.40;99.90
19206;DHT22;59358;52.134;5.596;2024-03-22T01:25:13;11.40;99.90
19206;DHT22;59358;52.134;5.596;2024-03-22T01:27:39;11.40;99.90
19206;DHT22;59358;52.134;5.596;2024-03-22T01:30:07;11.40;99.90
19206;DHT22;59358;52.134;5.596;2024-03-22T01:32:34;11.40;99.90
19206;DHT22;59358;52.134;5.596;2024-03-22T01:35:01;11.40;99.90
19206;DHT22;59358;52.134;5.596;2024-03-22T01:37:26;11.40;99.90
19206;DHT22;59358;52.134;5.596;2024-03-22T01:39:54;11.40;99.90
19206;DHT22;59358;52.134;5.596;2024-03-22T01:42:20;11.40;99.90
19206;DHT22;59358;52.134;5.596;2024-03-22T01:44:49;11.40;99.90
19206;DHT22;59358;52.134;5.596;2024-03-22T01:47:15;11.40;99.90
19206;DHT22;59358;52.134;5.596;2024-03-22T01:49:42;11.40;99.90
19206;DHT22;59358;52.134;5.596;2024-03-22T01:52:08;11.40;99.90
19206;DHT22;59358;52.134;5.596;2024-03-22T01:54:34;11.50;99.90
19206;DHT22;59358;52.134;5.596;2024-03-22T01:57:02;11.50;99.90
19206;DHT22;59358;52.134;5.596;2024-03-22T01:59:30;11.50;99.90
19206;DHT22;59358;52.134;5.596;2024-03-22T02:01:56;11.50;99.90
19206;DHT22;59358;52.134;5.596;2024-03-22T02:04:22;11.40;99.90
19206;DHT22;59358;52.134;5.596;2024-03-22T02:06:48;11.50;99.90
19206;DHT22;59358;52.134;5.596;2024-03-22T02:09:15;11.50;99.90
19206;DHT22;59358;52.134;5.596;2024-03-22T02:11:42;11.40;99.90
19206;DHT22;59358;52.134;5.596;2024-03-22T02:14:10;11.40;99.90
19206;DHT22;59358;52.134;5.596;2024-03-22T02:16:36;11.40;99.90
19206;DHT22;59358;52.134;5.596;2024-03-22T02:19:03;11.40;99.90
19206;DHT22;59358;52.134;5.596;2024-03-22T02:21:28;11.40;99.90
19206;DHT22;59358;52.134;5.596;2024-03-22T02:23:56;11.40;99.90
19206;DHT22;59358;52.134;5.596;2024-03-22T02:26:22;11.40;99.90
19206;DHT22;59358;52.134;5.596;2024-03-22T02:28:49;11.50;99.90
19206;DHT22;59358;52.134;5.596;2024-03-22T02:31:15;11.50;99.90
19206;DHT22;59358;52.134;5.596;2024-03-22T02:33:41;11.60;99.90
19206;DHT22;59358;52.134;5.596;2024-03-22T02:36:08;11.60;99.90
19206;DHT22;59358;52.134;5.596;2024-03-22T02:38:35;11.60;99.90
19206;DHT22;59358;52.134;5.596;2024-03-22T02:41:02;11.60;99.90
19206;DHT22;59358;52.134;5.596;2024-03-22T02:43:29;11.70;99.90
19206;DHT22;59358;52.134;5.596;2024-03-22T02:45:55;11.60;99.90
19206;DHT22;59358;52.134;5.596;2024-03-22T02:48:22;11.60;99.90
19206;DHT22;59358;52.134;5.596;2024-03-22T02:50:47;11.60;99.90
19206;DHT22;59358;52.134;5.596;2024-03-22T02:53:14;11.60;99.90
19206;DHT22;59358;52.134;5.596;2024-03-22T02:55:40;11.60;99.90
19206;DHT22;59358;52.134;5.596;2024-03-22T02:58:09;11.60;99.90
19206;DHT22;59358;52.134;5.596;2024-03-22T03:00:36;11.60;99.90
19206;DHT22;59358;52.134;5.596;2024-03-22T03:03:04;11.60;99.90
19206;DHT22;59358;52.134;5.596;2024-03-22T03:05:30;11.50;99.90
19206;DHT22;59358;52.134;5.596;2024-03-22T03:07:56;11.50;99.90
19206;DHT22;59358;52.134;5.596;2024-03-22T03:10:22;11.60;99.90
19206;DHT22;59358;52.134;5.596;2024-03-22T03:12:49;11.50;99.90
19206;DHT22;59358;52.134;5.596;2024-03-22T03:15:18;11.40;99.90
19206;DHT22;59358;52.134;5.596;2024-03-22T03:17:45;11.40;99.90
19206;DHT22;59358;52.134;5.596;2024-03-22T03:20:11;11.40;99.90
19206;DHT22;59358;52.134;5.596;2024-03-22T03:22:39;11.40;99.90
19206;DHT22;59358;52.134;5.596;2024-03-22T03:25:05;11.30;99.90
19206;DHT22;59358;52.134;5.596;2024-03-22T03:27:33;11.30;99.90
19206;DHT22;59358;52.134;5.596;2024-03-22T03:29:58;11.10;99.90
19206;DHT22;59358;52.134;5.596;2024-03-22T03:32:27;11.10;99.90
19206;DHT22;59358;52.134;5.596;2024-03-22T03:34:53;11.10;99.90
19206;DHT22;59358;52.134;5.596;2024-03-22T03:37:19;11.10;99.90
19206;DHT22;59358;52.134;5.596;2024-03-22T03:39:45;11.00;99.90
19206;DHT22;59358;52.134;5.596;2024-03-22T03:42:12;11.00;99.90
19206;DHT22;59358;52.134;5.596;2024-03-22T03:44:38;11.00;99.90
19206;DHT22;59358;52.134;5.596;2024-03-22T03:47:05;11.00;99.90
19206;DHT22;59358;52.134;5.596;2024-03-22T03:49:32;11.00;99.90
19206;DHT22;59358;52.134;5.596;2024-03-22T03:51:59;11.00;99.90
19206;DHT22;59358;52.134;5.596;2024-03-22T03:54:24;11.00;99.90
19206;DHT22;59358;52.134;5.596;2024-03-22T03:56:51;10.90;99.90
19206;DHT22;59358;52.134;5.596;2024-03-22T03:59:17;10.90;99.90
19206;DHT22;59358;52.134;5.596;2024-03-22T04:01:44;10.90;99.90
19206;DHT22;59358;52.134;5.596;2024-03-22T04:04:09;10.80;99.90
19206;DHT22;59358;52.134;5.596;2024-03-22T04:06:38;10.80;99.90
19206;DHT22;59358;52.134;5.596;2024-03-22T04:09:03;10.70;99.90
19206;DHT22;59358;52.134;5.596;2024-03-22T04:11:31;10.60;99.90
19206;DHT22;59358;52.134;5.596;2024-03-22T04:13:57;10.60;99.90
19206;DHT22;59358;52.134;5.596;2024-03-22T04:16:23;10.70;99.90
19206;DHT22;59358;52.134;5.596;2024-03-22T04:18:49;10.70;99.90
19206;DHT22;59358;52.134;5.596;2024-03-22T04:21:17;10.70;99.90
19206;DHT22;59358;52.134;5.596;2024-03-22T04:23:44;10.60;99.90
19206;DHT22;59358;52.134;5.596;2024-03-22T04:26:11;10.60;99.90
19206;DHT22;59358;52.134;5.596;2024-03-22T04:28:37;10.60;99.90
19206;DHT22;59358;52.134;5.596;2024-03-22T04:31:05;10.60;99.90
19206;DHT22;59358;52.134;5.596;2024-03-22T04:33:32;10.60;99.90
19206;DHT22;59358;52.134;5.596;2024-03-22T04:36:00;10.70;99.90
19206;DHT22;59358;52.134;5.596;2024-03-22T04:38:27;10.70;99.90
19206;DHT22;59358;52.134;5.596;2024-03-22T04:40:56;10.60;99.90
19206;DHT22;59358;52.134;5.596;2024-03-22T04:43:24;10.70;99.90
19206;DHT22;59358;52.134;5.596;2024-03-22T04:45:51;10.70;99.90
19206;DHT22;59358;52.134;5.596;2024-03-22T04:48:18;10.70;99.90
19206;DHT22;59358;52.134;5.596;2024-03-22T04:50:45;10.70;99.90
19206;DHT22;59358;52.134;5.596;2024-03-22T04:53:12;10.60;99.90
19206;DHT22;59358;52.134;5.596;2024-03-22T04:55:39;10.70;99.90
19206;DHT22;59358;52.134;5.596;2024-03-22T04:58:14;10.70;99.90
19206;DHT22;59358;52.134;5.596;2024-03-22T05:00:41;10.70;99.90
19206;DHT22;59358;52.134;5.596;2024-03-22T05:03:07;10.60;99.90
19206;DHT22;59358;52.134;5.596;2024-03-22T05:05:35;10.50;99.90
19206;DHT22;59358;52.134;5.596;2024-03-22T05:08:01;10.60;99.90
19206;DHT22;59358;52.134;5.596;2024-03-22T05:10:28;10.60;99.90
19206;DHT22;59358;52.134;5.596;2024-03-22T05:12:54;10.50;99.90
19206;DHT22;59358;52.134;5.596;2024-03-22T05:15:23;10.50;99.90
19206;DHT22;59358;52.134;5.596;2024-03-22T05:17:51;10.50;99.90
19206;DHT22;59358;52.134;5.596;2024-03-22T05:20:18;10.50;99.90
19206;DHT22;59358;52.134;5.596;2024-03-22T05:22:44;10.60;99.90
19206;DHT22;59358;52.134;5.596;2024-03-22T05:25:10;10.60;99.90
19206;DHT22;59358;52.134;5.596;2024-03-22T05:27:38;10.60;99.90
19206;DHT22;59358;52.134;5.596;2024-03-22T05:30:05;10.60;99.90
19206;DHT22;59358;52.134;5.596;2024-03-22T05:32:32;10.70;99.90
19206;DHT22;59358;52.134;5.596;2024-03-22T05:34:59;10.70;99.90
19206;DHT22;59358;52.134;5.596;2024-03-22T05:37:25;10.60;99.90
19206;DHT22;59358;52.134;5.596;2024-03-22T05:39:52;10.60;99.90
19206;DHT22;59358;52.134;5.596;2024-03-22T05:42:18;10.60;99.90
19206;DHT22;59358;52.134;5.596;2024-03-22T05:44:45;10.50;99.90
19206;DHT22;59358;52.134;5.596;2024-03-22T05:47:11;10.60;99.90
19206;DHT22;59358;52.134;5.596;2024-03-22T05:49:39;10.50;99.90
19206;DHT22;59358;52.134;5.596;2024-03-22T05:52:05;10.60;99.90
19206;DHT22;59358;52.134;5.596;2024-03-22T05:54:32;10.50;99.90
19206;DHT22;59358;52.134;5.596;2024-03-22T05:56:58;10.40;99.90
19206;DHT22;59358;52.134;5.596;2024-03-22T05:59:26;10.40;99.90
19206;DHT22;59358;52.134;5.596;2024-03-22T06:01:53;10.40;99.90
19206;DHT22;59358;52.134;5.596;2024-03-22T06:04:19;10.50;99.90
19206;DHT22;59358;52.134;5.596;2024-03-22T06:06:46;10.50;99.90
19206;DHT22;59358;52.134;5.596;2024-03-22T06:09:13;10.40;99.90
19206;DHT22;59358;52.134;5.596;2024-03-22T06:11:49;10.50;99.90
19206;DHT22;59358;52.134;5.596;2024-03-22T06:14:14;10.60;99.90
19206;DHT22;59358;52.134;5.596;2024-03-22T06:16:41;10.60;99.90
19206;DHT22;59358;52.134;5.596;2024-03-22T06:19:07;10.60;99.90
19206;DHT22;59358;52.134;5.596;2024-03-22T06:21:34;10.60;99.90
19206;DHT22;59358;52.134;5.596;2024-03-22T06:24:01;10.60;99.90
19206;DHT22;59358;52.134;5.596;2024-03-22T06:26:28;10.70;99.90
19206;DHT22;59358;52.134;5.596;2024-03-22T06:28:54;10.70;99.90
19206;DHT22;59358;52.134;5.596;2024-03-22T06:31:21;10.70;99.90
19206;DHT22;59358;52.134;5.596;2024-03-22T06:33:47;10.70;99.90
19206;DHT22;59358;52.134;5.596;2024-03-22T06:36:14;10.70;99.90
19206;DHT22;59358;52.134;5.596;2024-03-22T06:38:40;10.70;99.90
19206;DHT22;59358;52.134;5.596;2024-03-22T06:41:08;10.80;99.90
19206;DHT22;59358;52.134;5.596;2024-03-22T06:43:33;10.80;99.90
19206;DHT22;59358;52.134;5.596;2024-03-22T06:46:00;10.80;99.90
19206;DHT22;59358;52.134;5.596;2024-03-22T06:48:26;10.90;99.90
19206;DHT22;59358;52.134;5.596;2024-03-22T06:50:53;11.00;99.90
19206;DHT22;59358;52.134;5.596;2024-03-22T06:53:19;11.00;99.90
19206;DHT22;59358;52.134;5.596;2024-03-22T06:55:46;10.90;99.90
19206;DHT22;59358;52.134;5.596;2024-03-22T06:58:14;10.90;99.90
19206;DHT22;59358;52.134;5.596;2024-03-22T07:00:41;11.00;99.90
19206;DHT22;59358;52.134;5.596;2024-03-22T07:03:07;11.00;99.90
19206;DHT22;59358;52.134;5.596;2024-03-22T07:05:34;11.00;99.90
19206;DHT22;59358;52.134;5.596;2024-03-22T07:08:00;11.00;99.90
19206;DHT22;59358;52.134;5.596;2024-03-22T07:10:27;11.10;99.90
19206;DHT22;59358;52.134;5.596;2024-03-22T07:12:54;11.30;99.90
19206;DHT22;59358;52.134;5.596;2024-03-22T07:15:23;11.30;99.90
19206;DHT22;59358;52.134;5.596;2024-03-22T07:17:49;11.10;99.90
19206;DHT22;59358;52.134;5.596;2024-03-22T07:20:16;11.10;99.90
19206;DHT22;59358;52.134;5.596;2024-03-22T07:22:42;11.10;99.90
19206;DHT22;59358;52.134;5.596;2024-03-22T07:25:08;11.10;99.90
19206;DHT22;59358;52.134;5.596;2024-03-22T07:27:35;11.20;99.90
19206;DHT22;59358;52.134;5.596;2024-03-22T07:30:02;11.30;99.90
19206;DHT22;59358;52.134;5.596;2024-03-22T07:32:30;11.20;99.90
19206;DHT22;59358;52.134;5.596;2024-03-22T07:34:57;11.20;99.90
19206;DHT22;59358;52.134;5.596;2024-03-22T07:37:23;11.20;99.90
19206;DHT22;59358;52.134;5.596;2024-03-22T07:39:49;11.20;99.90
19206;DHT22;59358;52.134;5.596;2024-03-22T07:42:15;11.20;99.90
19206;DHT22;59358;52.134;5.596;2024-03-22T07:44:42;11.20;99.90
19206;DHT22;59358;52.134;5.596;2024-03-22T07:47:08;11.10;99.90
19206;DHT22;59358;52.134;5.596;2024-03-22T07:49:36;11.10;99.90
19206;DHT22;59358;52.134;5.596;2024-03-22T07:52:02;11.20;99.90
19206;DHT22;59358;52.134;5.596;2024-03-22T07:54:29;11.10;99.90
19206;DHT22;59358;52.134;5.596;2024-03-22T07:56:55;11.10;99.90
19206;DHT22;59358;52.134;5.596;2024-03-22T07:59:22;11.10;99.90
19206;DHT22;59358;52.134;5.596;2024-03-22T08:01:48;11.10;99.90
19206;DHT22;59358;52.134;5.596;2024-03-22T08:04:14;11.20;99.90
19206;DHT22;59358;52.134;5.596;2024-03-22T08:06:42;11.20;99.90
19206;DHT22;59358;52.134;5.596;2024-03-22T08:09:08;11.10;99.90
19206;DHT22;59358;52.134;5.596;2024-03-22T08:11:34;11.10;99.90
19206;DHT22;59358;52.134;5.596;2024-03-22T08:14:01;11.10;99.90
19206;DHT22;59358;52.134;5.596;2024-03-22T08:16:28;11.10;99.90
19206;DHT22;59358;52.134;5.596;2024-03-22T08:18:55;11.00;99.90
19206;DHT22;59358;52.134;5.596;2024-03-22T08:21:22;11.10;99.90
19206;DHT22;59358;52.134;5.596;2024-03-22T08:23:50;11.10;99.90
19206;DHT22;59358;52.134;5.596;2024-03-22T08:26:16;11.20;99.90
19206;DHT22;59358;52.134;5.596;2024-03-22T08:28:43;11.30;99.90
19206;DHT22;59358;52.134;5.596;2024-03-22T08:31:09;11.10;99.90
19206;DHT22;59358;52.134;5.596;2024-03-22T08:33:36;11.10;99.90
19206;DHT22;59358;52.134;5.596;2024-03-22T08:36:02;11.20;99.90
19206;DHT22;59358;52.134;5.596;2024-03-22T08:38:29;11.10;99.90
19206;DHT22;59358;52.134;5.596;2024-03-22T08:40:56;11.10;99.90
19206;DHT22;59358;52.134;5.596;2024-03-22T08:43:23;11.10;99.90
19206;DHT22;59358;52.134;5.596;2024-03-22T08:45:51;11.00;99.90
19206;DHT22;59358;52.134;5.596;2024-03-22T08:48:18;10.90;99.90
19206;DHT22;59358;52.134;5.596;2024-03-22T08:50:44;11.00;99.90
19206;DHT22;59358;52.134;5.596;2024-03-22T08:53:11;11.10;99.90
19206;DHT22;59358;52.134;5.596;2024-03-22T08:55:37;11.30;99.90
19206;DHT22;59358;52.134;5.596;2024-03-22T08:58:05;11.20;99.90
19206;DHT22;59358;52.134;5.596;2024-03-22T09:00:31;11.10;99.90
19206;DHT22;59358;52.134;5.596;2024-03-22T09:02:57;10.90;99.90
19206;DHT22;59358;52.134;5.596;2024-03-22T09:05:23;11.00;99.90
19206;DHT22;59358;52.134;5.596;2024-03-22T09:07:50;11.10;99.90
19206;DHT22;59358;52.134;5.596;2024-03-22T09:10:18;11.10;99.90
19206;DHT22;59358;52.134;5.596;2024-03-22T09:12:45;11.10;99.90
19206;DHT22;59358;52.134;5.596;2024-03-22T09:15:12;11.10;99.90
19206;DHT22;59358;52.134;5.596;2024-03-22T09:17:39;11.00;99.90
19206;DHT22;59358;52.134;5.596;2024-03-22T09:20:06;11.00;99.90
19206;DHT22;59358;52.134;5.596;2024-03-22T09:22:33;11.00;99.90
19206;DHT22;59358;52.134;5.596;2024-03-22T09:24:59;11.00;99.90
19206;DHT22;59358;52.134;5.596;2024-03-22T09:27:26;11.00;99.90
19206;DHT22;59358;52.134;5.596;2024-03-22T09:29:52;11.00;99.90
19206;DHT22;59358;52.134;5.596;2024-03-22T09:32:20;11.10;99.90
19206;DHT22;59358;52.134;5.596;2024-03-22T09:34:48;11.10;99.90
19206;DHT22;59358;52.134;5.596;2024-03-22T09:37:14;11.30;99.90
19206;DHT22;59358;52.134;5.596;2024-03-22T09:39:41;11.20;99.90
19206;DHT22;59358;52.134;5.596;2024-03-22T09:42:07;11.20;99.90
19206;DHT22;59358;52.134;5.596;2024-03-22T09:44:35;11.20;99.90
19206;DHT22;59358;52.134;5.596;2024-03-22T09:47:03;11.20;99.90
19206;DHT22;59358;52.134;5.596;2024-03-22T09:49:31;11.20;99.90
19206;DHT22;59358;52.134;5.596;2024-03-22T09:51:57;11.20;99.90
19206;DHT22;59358;52.134;5.596;2024-03-22T09:54:25;11.20;99.90
19206;DHT22;59358;52.134;5.596;2024-03-22T09:56:51;11.10;99.90
19206;DHT22;59358;52.134;5.596;2024-03-22T09:59:18;11.10;99.90
19206;DHT22;59358;52.134;5.596;2024-03-22T10:01:44;11.30;99.90
19206;DHT22;59358;52.134;5.596;2024-03-22T10:04:12;11.40;99.90
19206;DHT22;59358;52.134;5.596;2024-03-22T10:06:39;11.40;99.90
19206;DHT22;59358;52.134;5.596;2024-03-22T10:09:06;11.40;99.90
19206;DHT22;59358;52.134;5.596;2024-03-22T10:11:34;11.30;99.90
19206;DHT22;59358;52.134;5.596;2024-03-22T10:14:01;11.20;99.90
19206;DHT22;59358;52.134;5.596;2024-03-22T10:16:33;11.20;99.90
19206;DHT22;59358;52.134;5.596;2024-03-22T10:19:00;11.10;99.90
19206;DHT22;59358;52.134;5.596;2024-03-22T10:21:26;11.20;99.90
19206;DHT22;59358;52.134;5.596;2024-03-22T10:23:55;11.20;99.90
19206;DHT22;59358;52.134;5.596;2024-03-22T10:26:21;11.10;99.90
19206;DHT22;59358;52.134;5.596;2024-03-22T10:28:48;11.20;99.90
19206;DHT22;59358;52.134;5.596;2024-03-22T10:31:14;11.30;99.90
19206;DHT22;59358;52.134;5.596;2024-03-22T10:33:41;11.20;99.90
19206;DHT22;59358;52.134;5.596;2024-03-22T10:36:10;11.40;99.90
19206;DHT22;59358;52.134;5.596;2024-03-22T10:38:39;11.50;99.90
19206;DHT22;59358;52.134;5.596;2024-03-22T10:41:06;11.60;99.90
19206;DHT22;59358;52.134;5.596;2024-03-22T10:43:33;11.40;99.90
19206;DHT22;59358;52.134;5.596;2024-03-22T10:46:01;11.50;99.90
19206;DHT22;59358;52.134;5.596;2024-03-22T10:48:30;11.50;99.90
19206;DHT22;59358;52.134;5.596;2024-03-22T10:50:59;11.50;99.90
19206;DHT22;59358;52.134;5.596;2024-03-22T10:53:29;11.50;99.90
19206;DHT22;59358;52.134;5.596;2024-03-22T10:55:57;11.50;99.90
19206;DHT22;59358;52.134;5.596;2024-03-22T10:58:27;11.50;99.90
19206;DHT22;59358;52.134;5.596;2024-03-22T11:00:54;11.40;99.90
19206;DHT22;59358;52.134;5.596;2024-03-22T11:03:21;11.40;99.90
19206;DHT22;59358;52.134;5.596;2024-03-22T11:05:49;11.30;99.90
19206;DHT22;59358;52.134;5.596;2024-03-22T11:08:23;11.30;99.90
19206;DHT22;59358;52.134;5.596;2024-03-22T11:10:49;11.30;99.90
19206;DHT22;59358;52.134;5.596;2024-03-22T11:13:17;11.30;99.90
19206;DHT22;59358;52.134;5.596;2024-03-22T11:15:46;11.30;99.90
19206;DHT22;59358;52.134;5.596;2024-03-22T11:18:13;11.40;99.90
19206;DHT22;59358;52.134;5.596;2024-03-22T11:20:39;11.40;99.90
19206;DHT22;59358;52.134;5.596;2024-03-22T11:23:06;11.50;99.90
19206;DHT22;59358;52.134;5.596;2024-03-22T11:25:32;11.50;99.90
19206;DHT22;59358;52.134;5.596;2024-03-22T11:27:59;11.60;99.90
19206;DHT22;59358;52.134;5.596;2024-03-22T11:30:26;11.60;99.90
19206;DHT22;59358;52.134;5.596;2024-03-22T11:32:54;11.80;99.90
19206;DHT22;59358;52.134;5.596;2024-03-22T11:35:20;11.80;99.90
19206;DHT22;59358;52.134;5.596;2024-03-22T11:37:47;11.90;99.90
19206;DHT22;59358;52.134;5.596;2024-03-22T11:40:14;11.90;99.90
19206;DHT22;59358;52.134;5.596;2024-03-22T11:42:43;11.80;99.90
19206;DHT22;59358;52.134;5.596;2024-03-22T11:45:10;11.70;99.90
19206;DHT22;59358;52.134;5.596;2024-03-22T11:47:38;11.90;99.90
19206;DHT22;59358;52.134;5.596;2024-03-22T11:50:06;11.80;99.90
19206;DHT22;59358;52.134;5.596;2024-03-22T11:52:35;11.90;99.90
19206;DHT22;59358;52.134;5.596;2024-03-22T11:55:00;11.80;99.90
19206;DHT22;59358;52.134;5.596;2024-03-22T11:57:28;11.70;99.90
19206;DHT22;59358;52.134;5.596;2024-03-22T11:59:59;11.80;99.90
19206;DHT22;59358;52.134;5.596;2024-03-22T12:02:25;11.90;99.90
19206;DHT22;59358;52.134;5.596;2024-03-22T12:04:52;11.90;99.90
19206;DHT22;59358;52.134;5.596;2024-03-22T12:07:20;12.10;99.90
19206;DHT22;59358;52.134;5.596;2024-03-22T12:09:46;12.00;99.90
19206;DHT22;59358;52.134;5.596;2024-03-22T12:12:13;12.00;99.90
19206;DHT22;59358;52.134;5.596;2024-03-22T12:14:39;11.90;99.90
19206;DHT22;59358;52.134;5.596;2024-03-22T12:17:06;11.90;99.90
19206;DHT22;59358;52.134;5.596;2024-03-22T12:19:32;11.90;99.90
19206;DHT22;59358;52.134;5.596;2024-03-22T12:21:59;11.90;99.90
19206;DHT22;59358;52.134;5.596;2024-03-22T12:24:27;11.80;99.90
19206;DHT22;59358;52.134;5.596;2024-03-22T12:26:54;11.60;99.90
19206;DHT22;59358;52.134;5.596;2024-03-22T12:29:20;11.70;99.90
19206;DHT22;59358;52.134;5.596;2024-03-22T12:31:47;11.80;99.90
19206;DHT22;59358;52.134;5.596;2024-03-22T12:34:13;11.70;99.90
19206;DHT22;59358;52.134;5.596;2024-03-22T12:36:40;11.60;99.90
19206;DHT22;59358;52.134;5.596;2024-03-22T12:39:06;11.60;99.90
19206;DHT22;59358;52.134;5.596;2024-03-22T12:41:34;11.60;99.90
19206;DHT22;59358;52.134;5.596;2024-03-22T12:44:01;11.70;99.90
19206;DHT22;59358;52.134;5.596;2024-03-22T12:46:29;11.80;99.90
19206;DHT22;59358;52.134;5.596;2024-03-22T12:48:54;12.00;99.90
19206;DHT22;59358;52.134;5.596;2024-03-22T12:51:21;12.00;99.90
19206;DHT22;59358;52.134;5.596;2024-03-22T12:53:47;11.70;99.90
19206;DHT22;59358;52.134;5.596;2024-03-22T12:56:14;11.60;99.90
19206;DHT22;59358;52.134;5.596;2024-03-22T12:58:41;11.40;99.90
19206;DHT22;59358;52.134;5.596;2024-03-22T13:01:09;11.30;99.90
19206;DHT22;59358;52.134;5.596;2024-03-22T13:03:36;11.40;99.90
19206;DHT22;59358;52.134;5.596;2024-03-22T13:06:03;11.30;99.90
19206;DHT22;59358;52.134;5.596;2024-03-22T13:08:29;11.20;99.90
19206;DHT22;59358;52.134;5.596;2024-03-22T13:10:56;11.20;99.90
19206;DHT22;59358;52.134;5.596;2024-03-22T13:13:21;11.00;99.90
19206;DHT22;59358;52.134;5.596;2024-03-22T13:15:50;11.10;99.90
19206;DHT22;59358;52.134;5.596;2024-03-22T13:18:16;11.30;99.90
19206;DHT22;59358;52.134;5.596;2024-03-22T13:20:43;11.40;99.90
19206;DHT22;59358;52.134;5.596;2024-03-22T13:23:09;11.50;99.90
19206;DHT22;59358;52.134;5.596;2024-03-22T13:25:37;11.60;99.90
19206;DHT22;59358;52.134;5.596;2024-03-22T13:28:03;11.40;99.90
19206;DHT22;59358;52.134;5.596;2024-03-22T13:30:30;11.30;99.90
19206;DHT22;59358;52.134;5.596;2024-03-22T13:32:58;11.30;99.90
19206;DHT22;59358;52.134;5.596;2024-03-22T13:35:25;11.30;99.90
19206;DHT22;59358;52.134;5.596;2024-03-22T13:37:51;11.40;99.90
19206;DHT22;59358;52.134;5.596;2024-03-22T13:40:18;11.40;99.90
19206;DHT22;59358;52.134;5.596;2024-03-22T13:42:44;11.50;99.90
19206;DHT22;59358;52.134;5.596;2024-03-22T13:45:10;11.40;99.90
19206;DHT22;59358;52.134;5.596;2024-03-22T13:47:36;11.40;99.90
19206;DHT22;59358;52.134;5.596;2024-03-22T13:50:07;11.30;99.90
19206;DHT22;59358;52.134;5.596;2024-03-22T13:52:34;11.40;99.90
19206;DHT22;59358;52.134;5.596;2024-03-22T13:55:01;11.30;99.90
19206;DHT22;59358;52.134;5.596;2024-03-22T13:57:27;11.30;99.90
19206;DHT22;59358;52.134;5.596;2024-03-22T13:59:53;11.20;99.90
19206;DHT22;59358;52.134;5.596;2024-03-22T14:02:19;11.20;99.90
19206;DHT22;59358;52.134;5.596;2024-03-22T14:04:46;11.10;99.90
19206;DHT22;59358;52.134;5.596;2024-03-22T14:07:13;11.10;99.90
19206;DHT22;59358;52.134;5.596;2024-03-22T14:09:40;11.30;99.90
19206;DHT22;59358;52.134;5.596;2024-03-22T14:12:06;11.30;99.90
19206;DHT22;59358;52.134;5.596;2024-03-22T14:14:34;11.30;99.90
19206;DHT22;59358;52.134;5.596;2024-03-22T14:16:59;11.20;99.90
19206;DHT22;59358;52.134;5.596;2024-03-22T14:19:26;11.20;99.90
19206;DHT22;59358;52.134;5.596;2024-03-22T14:21:52;11.30;99.90
19206;DHT22;59358;52.134;5.596;2024-03-22T14:24:20;11.40;99.90
19206;DHT22;59358;52.134;5.596;2024-03-22T14:26:46;11.30;99.90
19206;DHT22;59358;52.134;5.596;2024-03-22T14:29:13;11.20;99.90
19206;DHT22;59358;52.134;5.596;2024-03-22T14:31:39;11.20;99.90
19206;DHT22;59358;52.134;5.596;2024-03-22T14:34:08;11.20;99.90
19206;DHT22;59358;52.134;5.596;2024-03-22T14:36:34;11.20;99.90
19206;DHT22;59358;52.134;5.596;2024-03-22T14:39:01;11.30;99.90
19206;DHT22;59358;52.134;5.596;2024-03-22T14:41:31;11.40;99.90
19206;DHT22;59358;52.134;5.596;2024-03-22T14:43:58;11.50;99.90
19206;DHT22;59358;52.134;5.596;2024-03-22T14:46:24;11.60;99.90
19206;DHT22;59358;52.134;5.596;2024-03-22T14:48:54;11.50;99.90
19206;DHT22;59358;52.134;5.596;2024-03-22T14:51:20;11.60;99.90
19206;DHT22;59358;52.134;5.596;2024-03-22T14:53:46;11.60;99.90
19206;DHT22;59358;52.134;5.596;2024-03-22T14:56:12;11.30;99.90
19206;DHT22;59358;52.134;5.596;2024-03-22T14:58:41;11.40;99.90
19206;DHT22;59358;52.134;5.596;2024-03-22T15:01:08;11.40;99.90
19206;DHT22;59358;52.134;5.596;2024-03-22T15:03:35;11.40;99.90
19206;DHT22;59358;52.134;5.596;2024-03-22T15:06:01;11.50;99.90
19206;DHT22;59358;52.134;5.596;2024-03-22T15:08:28;11.60;99.90
19206;DHT22;59358;52.134;5.596;2024-03-22T15:10:54;11.60;99.90
19206;DHT22;59358;52.134;5.596;2024-03-22T15:13:22;11.70;99.90
19206;DHT22;59358;52.134;5.596;2024-03-22T15:15:53;11.50;99.90
19206;DHT22;59358;52.134;5.596;2024-03-22T15:18:20;11.30;99.90
19206;DHT22;59358;52.134;5.596;2024-03-22T15:20:46;11.20;99.90
19206;DHT22;59358;52.134;5.596;2024-03-22T15:23:13;11.10;99.90
19206;DHT22;59358;52.134;5.596;2024-03-22T15:25:40;11.00;99.90
19206;DHT22;59358;52.134;5.596;2024-03-22T15:28:07;11.10;99.90